createdAt,value
2017-08-30T00:01:19.754Z,19.30
2017-08-30T00:03:47.199Z,19.20
2017-08-30T00:06:14.643Z,19.30
2017-08-30T00:08:42.094Z,19.30
2017-08-30T00:11:09.539Z,19.30
2017-08-30T00:13:37.006Z,19.30
2017-08-30T00:16:04.452Z,19.30
2017-08-30T00:18:31.895Z,19.30
2017-08-30T00:20:59.351Z,19.20
2017-08-30T00:23:26.794Z,19.20
2017-08-30T00:26:05.954Z,19.20
2017-08-30T00:28:33.398Z,19.10
2017-08-30T00:31:00.838Z,19.10
2017-08-30T00:33:28.279Z,19.10
2017-08-30T00:35:55.727Z,19.10
2017-08-30T00:38:23.178Z,19.00
2017-08-30T00:40:50.638Z,18.90
2017-08-30T00:43:18.095Z,18.80
2017-08-30T00:45:45.545Z,18.90
2017-08-30T00:48:12.983Z,18.90
2017-08-30T00:50:40.426Z,18.80
2017-08-30T00:53:08.651Z,18.70
2017-08-30T00:55:36.114Z,18.70
2017-08-30T00:58:03.548Z,18.70
2017-08-30T01:00:31.007Z,18.60
2017-08-30T01:02:58.443Z,18.60
2017-08-30T01:05:25.918Z,18.60
2017-08-30T01:07:53.351Z,18.50
2017-08-30T01:10:20.795Z,18.40
2017-08-30T01:12:48.241Z,18.40
2017-08-30T01:15:15.680Z,18.50
2017-08-30T01:17:43.123Z,18.50
2017-08-30T01:20:10.566Z,18.40
2017-08-30T01:22:38.011Z,18.50
2017-08-30T01:25:05.450Z,18.40
2017-08-30T01:27:32.924Z,18.60
2017-08-30T01:30:00.364Z,18.80
2017-08-30T01:32:27.811Z,18.70
2017-08-30T01:34:55.263Z,18.50
2017-08-30T01:37:22.707Z,18.40
2017-08-30T01:39:50.148Z,18.30
2017-08-30T01:42:17.596Z,18.30
2017-08-30T01:44:45.027Z,18.30
2017-08-30T01:47:12.470Z,18.30
2017-08-30T01:49:39.921Z,18.40
2017-08-30T01:52:07.369Z,18.40
2017-08-30T01:54:34.807Z,18.30
2017-08-30T01:57:03.026Z,18.30
2017-08-30T01:59:30.468Z,18.30
2017-08-30T02:01:57.927Z,18.20
2017-08-30T02:04:25.363Z,18.20
2017-08-30T02:06:52.812Z,18.20
2017-08-30T02:09:20.251Z,18.00
2017-08-30T02:11:47.699Z,18.20
2017-08-30T02:14:15.138Z,18.10
2017-08-30T02:16:42.587Z,18.10
2017-08-30T02:19:10.038Z,18.10
2017-08-30T02:21:37.478Z,18.00
2017-08-30T02:24:04.936Z,18.00
2017-08-30T02:26:32.388Z,18.00
2017-08-30T02:28:59.849Z,18.00
2017-08-30T02:31:27.307Z,18.00
2017-08-30T02:33:54.765Z,18.00
2017-08-30T02:36:22.194Z,17.80
2017-08-30T02:38:49.644Z,18.00
2017-08-30T02:41:17.074Z,17.90
2017-08-30T02:43:44.531Z,17.90
2017-08-30T02:46:11.988Z,17.70
2017-08-30T02:48:39.433Z,17.70
2017-08-30T02:51:06.872Z,17.70
2017-08-30T02:53:34.319Z,17.60
2017-08-30T02:56:01.758Z,17.70
2017-08-30T02:58:29.210Z,17.80
2017-08-30T03:00:56.659Z,17.80
2017-08-30T03:03:24.115Z,17.70
2017-08-30T03:05:51.550Z,17.70
2017-08-30T03:08:18.995Z,17.70
2017-08-30T03:10:46.436Z,17.70
2017-08-30T03:13:13.876Z,17.80
2017-08-30T03:15:41.319Z,17.80
2017-08-30T03:18:08.764Z,17.80
2017-08-30T03:20:36.213Z,17.60
2017-08-30T03:23:03.674Z,17.60
2017-08-30T03:25:31.122Z,17.70
2017-08-30T03:27:58.559Z,17.70
2017-08-30T03:30:26.007Z,17.70
2017-08-30T03:32:53.451Z,17.70
2017-08-30T03:35:20.898Z,17.70
2017-08-30T03:37:48.331Z,17.70
2017-08-30T03:40:15.783Z,17.60
2017-08-30T03:42:43.224Z,17.60
2017-08-30T03:45:10.678Z,17.50
2017-08-30T03:47:38.107Z,17.40
2017-08-30T03:50:05.551Z,17.40
2017-08-30T03:52:32.998Z,17.40
2017-08-30T03:55:00.443Z,17.30
2017-08-30T03:57:27.887Z,17.30
2017-08-30T03:59:55.326Z,17.40
2017-08-30T04:02:22.767Z,17.40
2017-08-30T04:04:50.208Z,17.40
2017-08-30T04:07:17.644Z,17.40
2017-08-30T04:09:45.099Z,17.30
2017-08-30T04:12:12.530Z,17.30
2017-08-30T04:14:39.987Z,17.20
2017-08-30T04:17:07.423Z,17.20
2017-08-30T04:19:34.878Z,17.30
2017-08-30T04:22:02.319Z,17.30
2017-08-30T04:24:29.761Z,17.30
2017-08-30T04:26:57.203Z,17.20
2017-08-30T04:29:24.635Z,17.30
2017-08-30T04:31:52.080Z,17.30
2017-08-30T04:34:19.513Z,17.30
2017-08-30T04:36:46.966Z,17.30
2017-08-30T04:39:14.514Z,17.30
2017-08-30T04:41:41.947Z,17.40
2017-08-30T04:44:09.382Z,17.40
2017-08-30T04:46:36.883Z,17.40
2017-08-30T04:49:04.319Z,17.40
2017-08-30T04:51:31.759Z,17.40
2017-08-30T04:53:59.191Z,17.50
2017-08-30T04:56:26.642Z,17.60
2017-08-30T04:58:55.127Z,17.70
2017-08-30T05:01:22.586Z,17.70
2017-08-30T05:03:50.025Z,17.90
2017-08-30T05:06:17.474Z,17.90
2017-08-30T05:08:44.923Z,18.10
2017-08-30T05:11:12.368Z,18.10
2017-08-30T05:13:39.827Z,18.20
2017-08-30T05:16:07.283Z,18.10
2017-08-30T05:18:35.558Z,18.20
2017-08-30T05:21:03.015Z,18.20
2017-08-30T05:23:30.471Z,18.40
2017-08-30T05:25:57.925Z,18.50
2017-08-30T05:28:25.387Z,18.60
2017-08-30T05:30:52.832Z,18.70
2017-08-30T05:33:20.270Z,18.80
2017-08-30T05:35:47.711Z,19.00
2017-08-30T05:38:15.161Z,19.10
2017-08-30T05:40:42.594Z,19.20
2017-08-30T05:43:10.041Z,19.30
2017-08-30T05:45:37.492Z,19.40
2017-08-30T05:48:04.946Z,19.60
2017-08-30T05:50:32.387Z,19.80
2017-08-30T05:52:59.842Z,20.00
2017-08-30T05:55:27.283Z,20.20
2017-08-30T05:57:55.615Z,21.30
2017-08-30T06:00:23.056Z,21.30
2017-08-30T06:02:50.504Z,21.90
2017-08-30T06:05:17.956Z,22.40
2017-08-30T06:07:45.398Z,22.90
2017-08-30T06:10:12.856Z,23.30
2017-08-30T06:12:40.305Z,23.30
2017-08-30T06:15:07.761Z,23.40
2017-08-30T06:17:35.207Z,23.50
2017-08-30T06:20:02.654Z,23.30
2017-08-30T06:22:30.090Z,23.00
2017-08-30T06:24:57.559Z,22.80
2017-08-30T06:27:24.999Z,22.90
2017-08-30T06:29:52.438Z,23.20
2017-08-30T06:32:19.886Z,23.80
2017-08-30T06:34:47.331Z,24.50
2017-08-30T06:37:14.787Z,24.90
2017-08-30T06:39:42.230Z,25.30
2017-08-30T06:42:09.687Z,25.70
2017-08-30T06:44:37.134Z,25.90
2017-08-30T06:47:04.592Z,26.10
2017-08-30T06:49:32.030Z,26.00
2017-08-30T06:51:59.479Z,25.90
2017-08-30T06:54:26.922Z,26.10
2017-08-30T06:56:54.369Z,26.10
2017-08-30T06:59:21.814Z,25.90
2017-08-30T07:01:49.275Z,25.90
2017-08-30T07:04:17.486Z,25.90
2017-08-30T07:06:44.975Z,25.80
2017-08-30T07:09:12.406Z,25.80
2017-08-30T07:11:39.850Z,25.90
2017-08-30T07:14:07.319Z,26.30
2017-08-30T07:16:34.760Z,26.40
2017-08-30T07:19:02.210Z,26.50
2017-08-30T07:21:29.674Z,26.70
2017-08-30T07:23:57.122Z,27.00
2017-08-30T07:26:24.559Z,27.00
2017-08-30T07:28:52.008Z,26.90
2017-08-30T07:31:19.451Z,27.00
2017-08-30T07:33:46.905Z,27.10
2017-08-30T07:36:14.350Z,27.20
2017-08-30T07:38:41.807Z,27.10
2017-08-30T07:41:09.252Z,26.90
2017-08-30T07:43:36.706Z,26.90
2017-08-30T07:46:04.150Z,26.90
2017-08-30T07:48:31.606Z,26.90
2017-08-30T07:50:59.042Z,26.90
2017-08-30T07:53:26.477Z,27.20
2017-08-30T07:55:53.927Z,27.40
2017-08-30T07:58:21.383Z,27.60
2017-08-30T08:00:48.822Z,27.80
2017-08-30T08:03:16.266Z,27.80
2017-08-30T08:05:43.726Z,27.90
2017-08-30T08:08:11.175Z,27.90
2017-08-30T08:10:38.629Z,27.60
2017-08-30T08:13:06.082Z,28.00
2017-08-30T08:15:33.538Z,28.60
2017-08-30T08:18:00.999Z,29.00
2017-08-30T08:20:28.454Z,29.40
2017-08-30T08:22:55.910Z,29.90
2017-08-30T08:25:23.382Z,30.10
2017-08-30T08:27:50.843Z,30.40
2017-08-30T08:30:18.301Z,30.40
2017-08-30T08:32:45.755Z,30.50
2017-08-30T08:35:13.198Z,30.80
2017-08-30T08:37:40.668Z,31.40
2017-08-30T08:40:08.111Z,32.20
2017-08-30T08:42:35.571Z,32.70
2017-08-30T08:45:03.014Z,32.60
2017-08-30T08:47:30.468Z,33.10
2017-08-30T08:49:57.925Z,32.80
2017-08-30T08:52:25.387Z,33.00
2017-08-30T08:54:52.822Z,33.70
2017-08-30T08:57:20.287Z,33.80
2017-08-30T08:59:47.717Z,32.90
2017-08-30T09:02:15.984Z,33.40
2017-08-30T09:04:43.431Z,33.40
2017-08-30T09:07:10.874Z,33.80
2017-08-30T09:09:38.317Z,34.00
2017-08-30T09:12:05.762Z,34.10
2017-08-30T09:14:33.206Z,34.40
2017-08-30T09:17:00.643Z,34.40
2017-08-30T09:19:28.097Z,35.10
2017-08-30T09:21:55.530Z,35.60
2017-08-30T09:24:22.979Z,35.20
2017-08-30T09:26:50.423Z,35.30
2017-08-30T09:29:17.875Z,35.70
2017-08-30T09:31:45.325Z,35.70
2017-08-30T09:34:12.767Z,33.00
2017-08-30T09:36:40.210Z,31.30
2017-08-30T09:39:07.662Z,31.00
2017-08-30T09:41:35.119Z,32.70
2017-08-30T09:44:02.563Z,34.10
2017-08-30T09:46:30.019Z,34.20
2017-08-30T09:48:57.458Z,33.00
2017-08-30T09:51:24.899Z,33.40
2017-08-30T09:53:52.340Z,33.00
2017-08-30T09:56:19.792Z,32.60
2017-08-30T09:58:47.237Z,32.70
2017-08-30T10:01:14.682Z,31.70
2017-08-30T10:03:42.126Z,31.60
2017-08-30T10:06:09.575Z,31.50
2017-08-30T10:08:37.019Z,30.90
2017-08-30T10:11:04.474Z,31.30
2017-08-30T10:13:31.916Z,31.10
2017-08-30T10:15:59.387Z,31.50
2017-08-30T10:18:26.831Z,32.60
2017-08-30T10:20:54.276Z,33.40
2017-08-30T10:23:21.717Z,32.80
2017-08-30T10:25:49.932Z,32.10
2017-08-30T10:28:17.374Z,32.00
2017-08-30T10:30:44.815Z,33.00
2017-08-30T10:33:12.266Z,34.00
2017-08-30T10:35:39.698Z,33.70
2017-08-30T10:38:07.151Z,34.00
2017-08-30T10:40:34.595Z,34.50
2017-08-30T10:43:02.069Z,33.60
2017-08-30T10:45:30.315Z,32.70
2017-08-30T10:47:57.791Z,34.00
2017-08-30T10:50:25.240Z,33.30
2017-08-30T10:52:52.683Z,32.90
2017-08-30T10:55:20.137Z,32.60
2017-08-30T10:57:47.575Z,33.10
2017-08-30T11:00:15.023Z,32.10
2017-08-30T11:02:42.466Z,32.60
2017-08-30T11:05:09.907Z,32.60
2017-08-30T11:07:37.354Z,31.90
2017-08-30T11:10:04.819Z,31.90
2017-08-30T11:12:32.267Z,31.90
2017-08-30T11:14:59.710Z,32.40
2017-08-30T11:17:27.163Z,32.40
2017-08-30T11:19:54.614Z,32.00
2017-08-30T11:22:22.059Z,31.70
2017-08-30T11:24:49.516Z,31.90
2017-08-30T11:27:16.974Z,31.60
2017-08-30T11:29:44.414Z,32.10
2017-08-30T11:32:11.863Z,32.20
2017-08-30T11:34:39.311Z,32.50
2017-08-30T11:37:06.767Z,32.70
2017-08-30T11:39:34.207Z,32.70
2017-08-30T11:42:01.647Z,32.20
2017-08-30T11:44:29.086Z,32.60
2017-08-30T11:46:56.537Z,31.60
2017-08-30T11:49:23.975Z,31.90
2017-08-30T11:51:51.443Z,31.90
2017-08-30T11:54:18.888Z,31.60
2017-08-30T11:56:46.328Z,31.70
2017-08-30T11:59:13.782Z,31.50
2017-08-30T12:01:41.237Z,31.30
2017-08-30T12:04:08.688Z,31.40
2017-08-30T12:06:36.887Z,31.90
2017-08-30T12:09:04.340Z,31.90
2017-08-30T12:11:31.787Z,31.90
2017-08-30T12:13:59.243Z,31.90
2017-08-30T12:16:26.682Z,32.30
2017-08-30T12:18:54.142Z,32.70
2017-08-30T12:21:21.586Z,33.20
2017-08-30T12:23:49.026Z,33.60
2017-08-30T12:26:16.466Z,33.50
2017-08-30T12:28:43.915Z,33.10
2017-08-30T12:31:11.359Z,33.20
2017-08-30T12:33:38.803Z,33.80
2017-08-30T12:36:06.246Z,33.70
2017-08-30T12:38:39.476Z,34.30
2017-08-30T12:41:06.918Z,34.10
2017-08-30T12:43:34.363Z,34.70
2017-08-30T12:46:01.806Z,34.60
2017-08-30T12:48:29.259Z,34.20
2017-08-30T12:50:56.702Z,34.40
2017-08-30T12:53:24.944Z,34.60
2017-08-30T12:55:52.393Z,34.60
2017-08-30T12:58:19.859Z,34.40
2017-08-30T13:00:47.299Z,33.80
2017-08-30T13:03:14.740Z,33.40
2017-08-30T13:05:42.187Z,32.80
2017-08-30T13:08:09.623Z,33.10
2017-08-30T13:10:37.071Z,33.40
2017-08-30T13:13:04.509Z,33.60
2017-08-30T13:15:31.951Z,34.10
2017-08-30T13:17:59.400Z,34.50
2017-08-30T13:20:26.843Z,34.60
2017-08-30T13:22:54.294Z,34.60
2017-08-30T13:25:21.731Z,34.70
2017-08-30T13:27:49.172Z,34.80
2017-08-30T13:30:16.627Z,34.40
2017-08-30T13:32:44.063Z,34.20
2017-08-30T13:35:12.275Z,34.20
2017-08-30T13:37:39.725Z,34.20
2017-08-30T13:40:07.174Z,34.10
2017-08-30T13:42:34.610Z,33.40
2017-08-30T13:45:02.084Z,33.50
2017-08-30T13:47:30.301Z,33.20
2017-08-30T13:49:57.743Z,33.10
2017-08-30T13:52:25.187Z,33.30
2017-08-30T13:54:52.636Z,33.60
2017-08-30T13:57:20.084Z,33.70
2017-08-30T13:59:47.519Z,33.70
2017-08-30T14:02:14.958Z,33.50
2017-08-30T14:04:42.398Z,33.40
2017-08-30T14:07:09.841Z,33.00
2017-08-30T14:09:37.295Z,33.00
2017-08-30T14:12:04.748Z,32.70
2017-08-30T14:14:32.188Z,32.70
2017-08-30T14:16:59.653Z,33.00
2017-08-30T14:19:27.093Z,33.10
2017-08-30T14:21:54.535Z,33.20
2017-08-30T14:24:21.971Z,33.40
2017-08-30T14:26:49.428Z,33.40
2017-08-30T14:29:16.863Z,33.20
2017-08-30T14:31:44.311Z,32.90
2017-08-30T14:34:11.751Z,33.10
2017-08-30T14:36:39.215Z,33.20
2017-08-30T14:39:06.672Z,33.50
2017-08-30T14:41:34.124Z,33.60
2017-08-30T14:44:01.575Z,33.60
2017-08-30T14:46:29.019Z,33.70
2017-08-30T14:48:56.463Z,33.50
2017-08-30T14:51:23.907Z,33.00
2017-08-30T14:53:51.354Z,33.10
2017-08-30T14:56:19.562Z,33.50
2017-08-30T14:58:47.019Z,33.40
2017-08-30T15:01:14.458Z,33.30
2017-08-30T15:03:41.903Z,33.40
2017-08-30T15:06:09.364Z,33.30
2017-08-30T15:08:36.810Z,32.70
2017-08-30T15:11:04.274Z,32.90
2017-08-30T15:13:31.722Z,32.50
2017-08-30T15:15:59.172Z,32.60
2017-08-30T15:18:27.382Z,32.60
2017-08-30T15:20:54.847Z,32.60
2017-08-30T15:23:22.295Z,32.30
2017-08-30T15:25:49.735Z,32.50
2017-08-30T15:28:17.182Z,32.60
2017-08-30T15:30:44.628Z,32.40
2017-08-30T15:33:12.083Z,32.30
2017-08-30T15:35:39.513Z,32.20
2017-08-30T15:38:06.966Z,32.00
2017-08-30T15:40:34.490Z,31.60
2017-08-30T15:43:01.927Z,31.50
2017-08-30T15:45:29.373Z,31.50
2017-08-30T15:47:56.819Z,31.30
2017-08-30T15:50:24.266Z,31.30
2017-08-30T15:52:51.708Z,31.40
2017-08-30T15:55:19.156Z,31.40
2017-08-30T15:57:46.595Z,31.30
2017-08-30T16:00:14.042Z,31.20
2017-08-30T16:02:41.495Z,31.20
2017-08-30T16:05:08.952Z,30.90
2017-08-30T16:07:36.394Z,30.80
2017-08-30T16:10:03.843Z,30.70
2017-08-30T16:12:31.267Z,30.70
2017-08-30T16:14:58.714Z,30.60
2017-08-30T16:17:26.160Z,30.60
2017-08-30T16:19:53.607Z,30.50
2017-08-30T16:22:21.054Z,30.50
2017-08-30T16:24:48.629Z,30.40
2017-08-30T16:27:16.076Z,30.40
2017-08-30T16:29:43.526Z,30.40
2017-08-30T16:32:10.976Z,30.40
2017-08-30T16:34:38.427Z,30.40
2017-08-30T16:37:05.869Z,30.50
2017-08-30T16:39:33.319Z,30.30
2017-08-30T16:42:00.763Z,30.30
2017-08-30T16:44:28.211Z,29.80
2017-08-30T16:46:55.662Z,29.60
2017-08-30T16:49:23.110Z,29.20
2017-08-30T16:51:50.555Z,29.30
2017-08-30T16:54:18.006Z,29.10
2017-08-30T16:56:45.460Z,29.30
2017-08-30T16:59:12.902Z,29.30
2017-08-30T17:01:40.359Z,29.10
2017-08-30T17:04:07.807Z,29.00
2017-08-30T17:06:35.342Z,28.80
2017-08-30T17:09:02.789Z,28.80
2017-08-30T17:11:30.231Z,28.70
2017-08-30T17:13:57.771Z,28.60
2017-08-30T17:16:25.220Z,28.70
2017-08-30T17:18:52.670Z,28.80
2017-08-30T17:21:20.126Z,28.40
2017-08-30T17:23:47.581Z,28.40
2017-08-30T17:26:15.023Z,28.40
2017-08-30T17:28:42.467Z,28.30
2017-08-30T17:31:09.924Z,28.30
2017-08-30T17:33:37.367Z,28.20
2017-08-30T17:36:04.807Z,28.20
2017-08-30T17:38:32.258Z,28.30
2017-08-30T19:48:35.931Z,25.60
2017-08-30T19:51:03.397Z,25.30
2017-08-30T19:53:30.846Z,24.70
2017-08-30T19:55:58.286Z,24.70
2017-08-30T19:58:25.738Z,24.60
2017-08-30T20:00:53.214Z,24.80
2017-08-30T20:03:20.667Z,24.80
2017-08-30T20:05:48.123Z,24.80
2017-08-30T20:08:15.599Z,24.70
2017-08-30T20:10:43.247Z,24.50
2017-08-30T20:13:10.690Z,24.40
2017-08-30T20:15:38.130Z,24.30
2017-08-30T20:18:05.573Z,24.30
2017-08-30T20:20:33.019Z,24.10
2017-08-30T20:23:00.459Z,24.20
2017-08-30T20:25:28.678Z,24.00
2017-08-30T20:27:56.133Z,24.00
2017-08-30T20:30:23.570Z,23.70
2017-08-30T20:32:51.014Z,23.40
2017-08-30T20:35:18.450Z,23.40
2017-08-30T20:37:45.895Z,23.40
2017-08-30T20:40:13.337Z,23.50
2017-08-30T20:42:40.786Z,23.50
2017-08-30T20:45:08.225Z,23.30
2017-08-30T20:47:35.675Z,23.10
2017-08-30T20:50:03.122Z,23.20
2017-08-30T20:52:30.701Z,23.30
2017-08-30T20:54:58.147Z,23.30
2017-08-30T20:57:25.619Z,23.30
2017-08-30T20:59:53.060Z,23.30
2017-08-30T21:02:20.512Z,23.30
2017-08-30T21:04:47.964Z,23.30
2017-08-30T21:07:15.416Z,23.30
2017-08-30T21:09:42.873Z,23.40
2017-08-30T21:12:10.312Z,23.30
2017-08-30T21:14:37.758Z,23.20
2017-08-30T21:17:05.195Z,23.00
2017-08-30T21:19:32.655Z,22.80
2017-08-30T21:22:00.087Z,22.60
2017-08-30T21:24:27.523Z,22.50
2017-08-30T21:26:54.975Z,22.30
2017-08-30T21:29:22.421Z,22.10
2017-08-30T21:31:49.881Z,22.00
2017-08-30T21:34:17.315Z,22.00
2017-08-30T21:36:44.788Z,22.00
2017-08-30T21:39:12.220Z,21.90
2017-08-30T21:41:39.676Z,21.90
2017-08-30T21:44:07.109Z,21.90
2017-08-30T21:46:34.550Z,21.80
2017-08-30T21:49:02.019Z,21.90
2017-08-30T21:51:29.446Z,21.90
2017-08-30T21:53:56.918Z,21.70
2017-08-30T21:56:24.366Z,21.80
2017-08-30T21:58:51.807Z,21.80
2017-08-30T22:01:19.267Z,21.50
2017-08-30T22:03:46.704Z,21.50
2017-08-30T22:06:14.160Z,21.60
2017-08-30T22:08:41.606Z,21.50
2017-08-30T22:11:09.078Z,21.40
2017-08-30T22:13:36.507Z,21.30
2017-08-30T22:16:04.719Z,21.30
2017-08-30T22:18:32.174Z,21.30
2017-08-30T22:20:59.623Z,21.40
2017-08-30T22:23:27.074Z,21.40
2017-08-30T22:25:54.515Z,21.40
2017-08-30T22:28:21.958Z,21.40
2017-08-30T22:30:49.400Z,21.30
2017-08-30T22:33:16.846Z,21.20
2017-08-30T22:35:44.290Z,21.30
2017-08-30T22:38:11.742Z,21.40
2017-08-30T22:40:39.176Z,21.40
2017-08-30T22:43:06.620Z,21.20
2017-08-30T22:45:34.075Z,21.30
2017-08-30T22:48:01.536Z,21.30
2017-08-30T22:50:28.994Z,21.20
2017-08-30T22:52:56.427Z,21.20
2017-08-30T22:55:23.867Z,21.10
2017-08-30T22:57:51.306Z,21.20
2017-08-30T23:00:18.741Z,21.10
2017-08-30T23:02:46.205Z,21.00
2017-08-30T23:05:13.650Z,21.00
2017-08-30T23:07:41.090Z,21.00
2017-08-30T23:10:08.563Z,20.90
2017-08-30T23:12:36.014Z,20.80
2017-08-30T23:15:03.485Z,20.80
2017-08-30T23:17:30.918Z,20.90
2017-08-30T23:19:58.368Z,21.00
2017-08-30T23:22:25.818Z,20.90
2017-08-30T23:24:53.252Z,20.90
2017-08-30T23:27:20.718Z,20.90
2017-08-30T23:29:48.159Z,20.80
2017-08-30T23:32:15.602Z,20.80
2017-08-30T23:34:43.047Z,20.70
2017-08-30T23:37:10.486Z,20.80
2017-08-30T23:39:37.952Z,20.70
2017-08-30T23:42:05.393Z,20.70
2017-08-30T23:44:32.840Z,20.70
2017-08-30T23:47:00.293Z,20.70
2017-08-30T23:49:27.738Z,20.70
2017-08-30T23:51:55.191Z,20.70
2017-08-30T23:54:22.630Z,20.70
2017-08-30T23:56:50.075Z,20.70
2017-08-30T23:59:17.530Z,20.70
